Time;durP1;ratioP1;P1;durP2;ratioP2;P2;SDS_P1;SDS_P2;PMS_P1;PMS_P2;Temp;Humidity;BMP_temperature;BMP_pressure;BME280_temperature;BME280_humidity;BME280_pressure;Samples;Min_cycle;Max_cycle;Signal;HPM_P1;HPM_P2
2023/07/15 00:01:02;;;;;;;0.00;0.00;;;19.60;76.80;;;;;;4972913;28;20050;-71
2023/07/15 00:03:28;;;;;;;0.00;0.00;;;19.60;76.90;;;;;;4973421;28;20553;-71
2023/07/15 00:05:54;;;;;;;0.00;0.00;;;19.60;76.50;;;;;;4975980;28;20094;-71
2023/07/15 00:08:20;;;;;;;0.00;0.00;;;19.60;76.30;;;;;;4973095;28;20054;-71
2023/07/15 00:10:46;;;;;;;0.00;0.00;;;19.60;76.30;;;;;;4972450;28;20090;-71
2023/07/15 00:13:14;;;;;;;0.00;0.00;;;19.60;76.30;;;;;;4976445;28;20129;-71
2023/07/15 00:15:41;;;;;;;0.00;0.00;;;19.60;76.30;;;;;;4984849;28;20178;-71
2023/07/15 00:18:09;;;;;;;0.00;0.00;;;19.60;76.30;;;;;;4972382;28;20629;-71
2023/07/15 00:20:35;;;;;;;0.00;0.00;;;19.60;76.50;;;;;;4971605;28;20059;-71
2023/07/15 00:23:01;;;;;;;0.00;0.00;;;19.60;76.80;;;;;;4973956;28;20077;-71
2023/07/15 00:25:27;;;;;;;0.00;0.00;;;19.60;76.40;;;;;;4977860;28;20043;-71
2023/07/15 00:27:53;;;;;;;0.00;0.00;;;19.60;76.60;;;;;;4971898;28;20192;-71
2023/07/15 00:30:19;;;;;;;0.22;0.22;;;19.60;77.00;;;;;;4971788;28;20417;-71
2023/07/15 00:32:47;;;;;;;0.00;0.00;;;19.60;77.20;;;;;;4972673;28;20062;-71
2023/07/15 00:35:28;;;;;;;0.10;0.10;;;19.60;76.90;;;;;;4972761;28;20451;-71
2023/07/15 00:38:00;;;;;;;0.00;0.00;;;19.60;76.80;;;;;;4972641;28;20121;-71
2023/07/15 00:40:26;;;;;;;;;;;19.60;76.60;;;;;;4973328;28;20042;-71
2023/07/15 00:43:30;;;;;;;0.00;0.00;;;19.60;76.80;;;;;;4983747;28;19926;-71
2023/07/15 00:46:22;;;;;;;0.00;0.00;;;19.60;76.30;;;;;;4964369;28;20054;-71
2023/07/15 00:49:00;;;;;;;0.00;0.00;;;19.60;76.70;;;;;;4964075;28;20054;-71
2023/07/15 00:51:28;;;;;;;0.00;0.00;;;19.60;77.10;;;;;;4961279;28;20047;-71
2023/07/15 00:53:54;;;;;;;0.00;0.00;;;19.60;76.80;;;;;;4971464;28;20034;-71
2023/07/15 00:56:21;;;;;;;0.00;0.00;;;19.60;76.50;;;;;;4971545;28;20042;-71
2023/07/15 00:58:48;;;;;;;0.00;0.00;;;19.60;76.20;;;;;;4954214;28;20504;-71
2023/07/15 01:01:14;;;;;;;0.00;0.00;;;19.70;75.80;;;;;;4971364;28;20880;-71
2023/07/15 01:03:44;;;;;;;0.00;0.00;;;19.70;75.70;;;;;;4971588;28;20528;-71
2023/07/15 01:06:11;;;;;;;0.00;0.00;;;19.70;75.70;;;;;;4965027;28;20070;-71
2023/07/15 01:08:37;;;;;;;0.00;0.00;;;19.80;75.60;;;;;;4970852;28;20066;-71
2023/07/15 01:11:03;;;;;;;0.00;0.00;;;19.80;75.40;;;;;;4971347;28;20047;-71
2023/07/15 01:13:28;;;;;;;0.00;0.00;;;19.80;75.30;;;;;;4969942;28;20058;-71
2023/07/15 01:15:54;;;;;;;0.00;0.00;;;19.80;75.70;;;;;;4954902;28;20424;-71
2023/07/15 01:18:20;;;;;;;0.00;0.00;;;19.80;75.60;;;;;;4971635;28;20046;-71
2023/07/15 01:20:46;;;;;;;0.00;0.00;;;19.80;75.40;;;;;;4972345;28;20054;-71
2023/07/15 01:23:11;;;;;;;0.35;0.30;;;19.80;75.50;;;;;;4972386;28;20042;-71
2023/07/15 01:25:37;;;;;;;0.10;0.10;;;19.80;75.10;;;;;;4970602;28;20514;-71
2023/07/15 01:28:03;;;;;;;0.00;0.00;;;19.80;74.90;;;;;;4974083;28;20412;-71
2023/07/15 01:30:29;;;;;;;0.00;0.00;;;19.80;74.70;;;;;;4972471;28;20055;-71
2023/07/15 01:32:55;;;;;;;0.00;0.00;;;19.90;74.50;;;;;;4972079;28;20058;-71
2023/07/15 01:35:20;;;;;;;0.00;0.00;;;19.90;74.40;;;;;;4972110;28;20466;-71
2023/07/15 01:37:46;;;;;;;0.00;0.00;;;19.90;74.20;;;;;;4971887;28;20061;-71
2023/07/15 01:40:13;;;;;;;0.00;0.00;;;19.90;73.70;;;;;;4970313;28;20043;-71
2023/07/15 01:42:40;;;;;;;0.00;0.00;;;20.00;73.40;;;;;;4972850;28;20059;-71
2023/07/15 01:45:09;;;;;;;0.00;0.00;;;20.00;72.90;;;;;;4991562;28;20055;-71
2023/07/15 01:47:35;;;;;;;0.00;0.00;;;20.00;72.40;;;;;;4972981;28;20078;-71
2023/07/15 01:50:01;;;;;;;0.00;0.00;;;20.10;72.40;;;;;;4971137;28;20051;-71
2023/07/15 01:52:27;;;;;;;0.05;0.05;;;20.10;72.10;;;;;;4971429;28;20049;-71
2023/07/15 01:54:52;;;;;;;0.00;0.00;;;20.10;71.70;;;;;;4990904;28;20534;-71
2023/07/15 01:57:18;;;;;;;0.00;0.00;;;20.10;71.20;;;;;;4975190;28;20046;-71
2023/07/15 01:59:43;;;;;;;0.00;0.00;;;20.20;71.30;;;;;;4969686;28;20455;-71
2023/07/15 02:02:10;;;;;;;0.88;0.55;;;20.20;71.00;;;;;;4972808;28;20035;-71
2023/07/15 02:04:36;;;;;;;0.00;0.00;;;20.30;70.40;;;;;;4970575;28;20066;-71
2023/07/15 02:07:02;;;;;;;0.00;0.00;;;20.30;70.00;;;;;;4970386;28;20118;-71
2023/07/15 02:09:28;;;;;;;0.00;0.00;;;20.30;70.10;;;;;;4970742;28;20484;-71
2023/07/15 02:11:54;;;;;;;0.00;0.00;;;20.40;70.10;;;;;;4959201;28;20074;-71
2023/07/15 02:14:20;;;;;;;0.00;0.00;;;20.40;70.50;;;;;;4970341;28;20082;-71
2023/07/15 02:16:45;;;;;;;0.00;0.00;;;20.40;70.20;;;;;;4970162;28;20117;-71
2023/07/15 02:19:11;;;;;;;0.00;0.00;;;20.50;70.50;;;;;;4973589;28;20042;-71
2023/07/15 02:21:36;;;;;;;0.00;0.00;;;20.40;70.40;;;;;;4976082;28;20061;-71
2023/07/15 02:24:03;;;;;;;0.00;0.00;;;20.50;70.10;;;;;;4971016;28;20046;-71
2023/07/15 02:26:28;;;;;;;0.00;0.00;;;20.50;70.40;;;;;;4969070;28;20145;-71
2023/07/15 02:28:57;;;;;;;0.00;0.00;;;20.50;70.30;;;;;;4970579;28;20126;-71
2023/07/15 02:31:23;;;;;;;0.00;0.00;;;20.50;70.30;;;;;;4983060;28;20046;-71
2023/07/15 02:33:48;;;;;;;0.08;0.08;;;20.50;70.30;;;;;;4970029;28;20073;-71
2023/07/15 02:36:15;;;;;;;0.00;0.00;;;20.40;70.20;;;;;;4970674;28;20461;-71
2023/07/15 02:38:40;;;;;;;0.00;0.00;;;20.50;70.50;;;;;;4971003;28;20046;-71
2023/07/15 02:41:06;;;;;;;0.00;0.00;;;20.40;70.70;;;;;;4970069;28;20043;-71
2023/07/15 02:43:32;;;;;;;0.25;0.25;;;20.40;70.80;;;;;;4966234;28;20042;-71
2023/07/15 02:45:57;;;;;;;0.00;0.00;;;20.30;70.90;;;;;;4970561;28;20057;-71
2023/07/15 02:48:24;;;;;;;4.10;0.43;;;20.40;70.90;;;;;;4970688;28;20051;-71
2023/07/15 02:50:56;;;;;;;0.00;0.00;;;20.30;70.90;;;;;;4970734;28;20050;-71
2023/07/15 02:53:22;;;;;;;0.00;0.00;;;20.30;71.00;;;;;;4970835;28;20047;-71
2023/07/15 02:55:48;;;;;;;0.00;0.00;;;20.30;71.00;;;;;;4969924;28;20046;-71
2023/07/15 02:58:14;;;;;;;0.00;0.00;;;20.30;71.00;;;;;;4970067;28;20532;-70
2023/07/15 03:00:40;;;;;;;0.00;0.00;;;20.20;71.10;;;;;;4970400;28;20125;-70
2023/07/15 03:03:07;;;;;;;0.00;0.00;;;20.20;71.20;;;;;;4969417;28;20058;-71
2023/07/15 03:05:33;;;;;;;0.00;0.00;;;20.20;71.30;;;;;;4970511;28;20140;-71
2023/07/15 03:07:58;;;;;;;0.00;0.00;;;20.10;71.30;;;;;;4969681;28;20111;-71
2023/07/15 03:10:25;;;;;;;0.00;0.00;;;20.10;71.60;;;;;;4970198;28;20053;-71
2023/07/15 03:12:50;;;;;;;0.00;0.00;;;20.10;71.80;;;;;;4970233;28;20054;-71
2023/07/15 03:15:17;;;;;;;0.00;0.00;;;20.00;71.90;;;;;;4970175;28;20051;-70
2023/07/15 03:17:43;;;;;;;0.00;0.00;;;20.00;72.10;;;;;;4968914;28;20046;-71
2023/07/15 03:20:19;;;;;;;0.00;0.00;;;20.00;72.20;;;;;;4967799;28;20496;-71
2023/07/15 03:22:45;;;;;;;0.00;0.00;;;20.00;72.40;;;;;;4967304;28;20047;-71
2023/07/15 03:25:11;;;;;;;0.00;0.00;;;19.90;72.50;;;;;;4970316;28;20182;-71
2023/07/15 03:27:37;;;;;;;0.00;0.00;;;19.90;72.70;;;;;;4969609;28;20117;-71
2023/07/15 03:30:02;;;;;;;0.00;0.00;;;19.80;72.80;;;;;;4970161;28;20050;-71
2023/07/15 03:32:28;;;;;;;0.17;0.10;;;19.70;72.90;;;;;;4969918;28;20407;-71
2023/07/15 03:34:53;;;;;;;0.00;0.00;;;19.80;73.00;;;;;;4969776;28;20137;-71
2023/07/15 03:37:19;;;;;;;0.00;0.00;;;19.70;73.20;;;;;;4971438;28;20042;-71
2023/07/15 03:39:45;;;;;;;0.00;0.00;;;19.70;73.30;;;;;;4974548;28;20050;-71
2023/07/15 03:42:10;;;;;;;0.00;0.00;;;19.70;73.20;;;;;;4989505;28;20207;-71
2023/07/15 03:44:36;;;;;;;0.00;0.00;;;19.60;73.20;;;;;;4969650;28;20047;-71
2023/07/15 03:47:01;;;;;;;0.00;0.00;;;19.60;73.40;;;;;;4952347;28;20038;-71
2023/07/15 03:49:27;;;;;;;0.00;0.00;;;19.60;73.60;;;;;;4973259;28;20581;-71
2023/07/15 03:51:52;;;;;;;0.00;0.00;;;19.50;73.60;;;;;;4984660;28;20043;-71
2023/07/15 03:54:18;;;;;;;0.00;0.00;;;19.50;73.90;;;;;;4969125;28;20407;-71
2023/07/15 03:56:44;;;;;;;0.00;0.00;;;19.50;74.10;;;;;;4952108;28;20062;-71
2023/07/15 03:59:09;;;;;;;0.00;0.00;;;19.50;74.30;;;;;;4969072;28;20049;-71
2023/07/15 04:01:35;;;;;;;0.00;0.00;;;19.50;74.30;;;;;;4965738;28;20122;-71
2023/07/15 04:04:04;;;;;;;0.00;0.00;;;19.50;74.50;;;;;;4969683;28;20046;-71
2023/07/15 04:06:32;;;;;;;0.10;0.10;;;19.50;74.60;;;;;;4968978;28;20546;-70
2023/07/15 04:08:57;;;;;;;0.00;0.00;;;19.50;75.00;;;;;;4969233;28;20472;-71
2023/07/15 04:11:23;;;;;;;0.03;0.00;;;19.50;74.90;;;;;;4968984;28;20050;-71
2023/07/15 04:13:49;;;;;;;0.00;0.00;;;19.50;75.00;;;;;;4969258;28;20047;-71
2023/07/15 04:16:14;;;;;;;0.00;0.00;;;19.50;75.40;;;;;;4969378;28;20134;-71
2023/07/15 04:18:42;;;;;;;0.00;0.00;;;19.50;75.40;;;;;;4967559;28;20527;-70
2023/07/15 04:21:08;;;;;;;0.00;0.00;;;19.50;75.40;;;;;;4970103;28;20685;-70
2023/07/15 04:23:33;;;;;;;0.00;0.00;;;19.60;76.10;;;;;;4983447;28;20039;-70
2023/07/15 04:25:59;;;;;;;0.25;0.25;;;19.60;76.10;;;;;;4969480;28;21012;-70
2023/07/15 04:28:24;;;;;;;0.00;0.00;;;19.60;76.40;;;;;;4968821;28;20125;-70
2023/07/15 04:30:50;;;;;;;0.22;0.13;;;19.60;76.50;;;;;;4970658;28;20492;-70
2023/07/15 04:33:16;;;;;;;0.10;0.10;;;19.60;76.90;;;;;;4988173;28;20392;-70
2023/07/15 04:35:43;;;;;;;0.00;0.00;;;19.60;76.80;;;;;;4972411;28;20039;-70
2023/07/15 04:38:10;;;;;;;0.00;0.00;;;19.60;76.80;;;;;;4971763;28;20423;-70
2023/07/15 04:40:35;;;;;;;0.00;0.00;;;19.60;76.70;;;;;;4969196;28;20117;-70
2023/07/15 04:43:01;;;;;;;0.00;0.00;;;19.70;77.00;;;;;;4987431;28;20133;-70
2023/07/15 04:45:27;;;;;;;0.00;0.00;;;19.70;77.50;;;;;;4974582;28;20074;-70
2023/07/15 04:47:52;;;;;;;0.00;0.00;;;19.70;77.20;;;;;;4972962;28;20043;-70
2023/07/15 04:50:18;;;;;;;0.00;0.00;;;19.70;77.70;;;;;;4974807;28;20428;-70
2023/07/15 04:52:43;;;;;;;0.00;0.00;;;19.70;78.20;;;;;;4972581;28;20134;-70
2023/07/15 04:55:10;;;;;;;0.00;0.00;;;19.80;77.90;;;;;;4972107;28;20046;-70
2023/07/15 04:57:35;;;;;;;0.00;0.00;;;19.90;78.00;;;;;;4972954;28;20070;-70
2023/07/15 05:00:01;;;;;;;0.13;0.13;;;19.90;78.90;;;;;;4954627;28;20510;-70
2023/07/15 05:02:27;;;;;;;0.00;0.00;;;19.90;79.20;;;;;;4971832;28;20173;-70
2023/07/15 05:04:53;;;;;;;0.00;0.00;;;20.00;79.20;;;;;;4972519;28;20421;-70
2023/07/15 05:07:18;;;;;;;0.30;0.30;;;20.00;79.30;;;;;;4971708;28;20097;-70
2023/07/15 05:09:45;;;;;;;0.20;0.20;;;20.10;79.50;;;;;;4971049;28;20089;-70
2023/07/15 05:12:10;;;;;;;0.00;0.00;;;20.20;80.60;;;;;;4972938;28;20066;-70
2023/07/15 05:14:36;;;;;;;0.00;0.00;;;20.30;80.20;;;;;;4982531;28;20047;-70
2023/07/15 05:17:05;;;;;;;0.00;0.00;;;20.40;80.80;;;;;;4969691;28;20252;-70
2023/07/15 05:19:32;;;;;;;0.00;0.00;;;20.40;79.90;;;;;;4958507;28;20069;-70
2023/07/15 05:21:57;;;;;;;0.00;0.00;;;20.50;79.40;;;;;;4971481;28;20039;-71
2023/07/15 05:24:28;;;;;;;0.00;0.00;;;20.60;80.30;;;;;;4953395;28;20054;-71
2023/07/15 05:26:54;;;;;;;0.00;0.00;;;20.70;79.40;;;;;;4977115;28;20050;-71
2023/07/15 05:29:20;;;;;;;0.00;0.00;;;20.80;80.20;;;;;;4978527;28;20089;-71
2023/07/15 05:31:45;;;;;;;0.30;0.30;;;20.80;80.00;;;;;;4959634;28;20050;-71
2023/07/15 05:34:11;;;;;;;0.00;0.00;;;20.80;79.90;;;;;;4969957;28;20117;-71
2023/07/15 05:36:37;;;;;;;0.00;0.00;;;20.90;80.30;;;;;;4970861;28;20042;-70
2023/07/15 05:39:02;;;;;;;0.00;0.00;;;20.90;80.40;;;;;;4970801;28;20317;-69
2023/07/15 05:41:28;;;;;;;0.03;0.03;;;21.00;80.00;;;;;;4966268;28;20098;-69
2023/07/15 05:43:54;;;;;;;0.00;0.00;;;21.00;80.10;;;;;;4950512;29;20492;-68
2023/07/15 05:46:20;;;;;;;0.35;0.35;;;21.10;80.70;;;;;;4947442;28;20057;-69
2023/07/15 05:48:46;;;;;;;0.00;0.00;;;21.10;81.30;;;;;;4980684;28;20050;-70
2023/07/15 05:51:11;;;;;;;0.00;0.00;;;21.20;81.40;;;;;;4969634;28;20416;-70
2023/07/15 05:53:37;;;;;;;0.00;0.00;;;21.30;80.70;;;;;;4968807;28;20053;-70
2023/07/15 05:56:03;;;;;;;0.10;0.10;;;21.30;80.70;;;;;;4967933;28;20470;-69
2023/07/15 05:58:29;;;;;;;0.00;0.00;;;21.50;80.40;;;;;;4970768;28;20046;-69
2023/07/15 06:00:55;;;;;;;0.00;0.00;;;21.50;80.00;;;;;;4977497;28;20564;-70
2023/07/15 06:03:20;;;;;;;0.10;0.10;;;21.60;79.50;;;;;;4973721;28;20527;-70
2023/07/15 06:05:46;;;;;;;0.00;0.00;;;21.60;79.00;;;;;;4933458;28;1062404;-69
2023/07/15 06:08:12;;;;;;;0.00;0.00;;;21.60;79.60;;;;;;4971650;28;20647;-70
2023/07/15 06:10:37;;;;;;;0.00;0.00;;;21.70;80.30;;;;;;4973815;28;20050;-70
2023/07/15 06:13:03;;;;;;;0.00;0.00;;;21.70;80.50;;;;;;4990578;28;20057;-70
2023/07/15 06:15:29;;;;;;;0.00;0.00;;;21.80;80.00;;;;;;4990234;28;20049;-70
2023/07/15 06:17:57;;;;;;;0.00;0.00;;;21.80;79.70;;;;;;4969607;28;20096;-69
2023/07/15 06:20:23;;;;;;;0.00;0.00;;;21.80;79.30;;;;;;4968577;28;20042;-69
2023/07/15 06:22:49;;;;;;;0.00;0.00;;;21.80;79.20;;;;;;4968194;28;20081;-69
2023/07/15 06:25:16;;;;;;;0.00;0.00;;;21.80;78.80;;;;;;4964594;28;20170;-69
2023/07/15 06:27:41;;;;;;;0.00;0.00;;;21.70;77.60;;;;;;4953020;28;20043;-69
2023/07/15 06:30:08;;;;;;;2.72;0.98;;;21.70;77.20;;;;;;4963245;28;20077;-70
2023/07/15 06:32:33;;;;;;;0.00;0.00;;;21.70;77.40;;;;;;4968289;28;20046;-70
2023/07/15 06:34:59;;;;;;;0.00;0.00;;;21.70;77.60;;;;;;4967895;28;20050;-70
2023/07/15 06:37:24;;;;;;;0.13;0.13;;;21.80;78.70;;;;;;4969664;28;20169;-69
2023/07/15 06:39:50;;;;;;;0.00;0.00;;;21.80;78.10;;;;;;4969115;28;20054;-69
2023/07/15 06:42:15;;;;;;;0.00;0.00;;;21.90;78.20;;;;;;4982745;28;20507;-69
2023/07/15 06:44:41;;;;;;;0.00;0.00;;;21.90;78.50;;;;;;4982088;28;20054;-69
2023/07/15 06:47:06;;;;;;;0.30;0.30;;;22.00;78.60;;;;;;4969970;28;20039;-70
2023/07/15 06:49:32;;;;;;;0.25;0.10;;;22.00;78.50;;;;;;4970906;28;20083;-70
2023/07/15 06:51:58;;;;;;;0.00;0.00;;;22.00;78.10;;;;;;4966910;28;20050;-70
2023/07/15 06:54:23;;;;;;;0.00;0.00;;;22.00;78.30;;;;;;4969775;28;20388;-70
2023/07/15 06:56:49;;;;;;;0.00;0.00;;;22.00;78.70;;;;;;4968521;28;20038;-70
2023/07/15 06:59:15;;;;;;;0.00;0.00;;;22.00;78.50;;;;;;4967066;28;21437;-68
2023/07/15 07:01:40;;;;;;;0.00;0.00;;;22.00;78.40;;;;;;4965913;28;20447;-69
2023/07/15 07:04:06;;;;;;;0.00;0.00;;;22.00;78.50;;;;;;4963508;28;20050;-61
2023/07/15 07:06:31;;;;;;;0.00;0.00;;;22.00;78.20;;;;;;4968150;28;20431;-70
2023/07/15 07:08:57;;;;;;;0.00;0.00;;;22.00;77.80;;;;;;4969293;28;20043;-71
2023/07/15 07:11:23;;;;;;;0.00;0.00;;;22.00;77.50;;;;;;4952063;28;20039;-71
2023/07/15 07:13:48;;;;;;;0.00;0.00;;;22.00;77.40;;;;;;4969888;28;20058;-71
2023/07/15 07:16:14;;;;;;;0.00;0.00;;;22.10;77.70;;;;;;4960551;28;20035;-72
2023/07/15 07:18:39;;;;;;;0.00;0.00;;;22.00;77.50;;;;;;4951929;28;20082;-71
2023/07/15 07:21:05;;;;;;;0.00;0.00;;;22.10;77.30;;;;;;4970137;28;20069;-71
2023/07/15 07:23:31;;;;;;;0.00;0.00;;;22.10;76.90;;;;;;4969343;28;20051;-71
2023/07/15 07:25:57;;;;;;;0.00;0.00;;;22.10;76.80;;;;;;4969832;28;20431;-71
2023/07/15 07:28:23;;;;;;;0.00;0.00;;;22.10;77.00;;;;;;4976505;28;20057;-73
2023/07/15 07:30:50;;;;;;;0.70;0.70;;;22.10;76.80;;;;;;4989345;28;20050;-74
2023/07/15 07:33:15;;;;;;;0.00;0.00;;;22.20;76.10;;;;;;4985310;28;20439;-73
2023/07/15 07:35:45;;;;;;;0.00;0.00;;;22.20;75.90;;;;;;4969785;28;20043;-74
2023/07/15 07:38:11;;;;;;;0.10;0.10;;;22.20;75.80;;;;;;4969644;28;20078;-73
2023/07/15 07:40:37;;;;;;;0.00;0.00;;;22.20;76.10;;;;;;4967744;28;20381;-73
2023/07/15 07:43:04;;;;;;;0.00;0.00;;;22.30;75.60;;;;;;4968726;28;20059;-73
2023/07/15 07:45:30;;;;;;;0.00;0.00;;;22.20;74.90;;;;;;4969738;28;20051;-72
2023/07/15 07:47:56;;;;;;;0.00;0.00;;;22.30;75.10;;;;;;4965122;28;20181;-73
2023/07/15 07:50:21;;;;;;;0.00;0.00;;;22.30;75.20;;;;;;4968970;28;20061;-73
2023/07/15 07:52:47;;;;;;;0.00;0.00;;;22.30;75.50;;;;;;4964111;28;20501;-72
2023/07/15 07:55:13;;;;;;;0.00;0.00;;;22.40;75.80;;;;;;4963674;28;20039;-73
2023/07/15 07:57:38;;;;;;;0.00;0.00;;;22.50;76.10;;;;;;4968879;28;20043;-71
2023/07/15 08:00:04;;;;;;;0.00;0.00;;;22.50;76.10;;;;;;4985615;28;20499;-74
2023/07/15 08:02:30;;;;;;;0.00;0.00;;;22.60;75.60;;;;;;4962691;28;20408;-74
2023/07/15 08:04:55;;;;;;;0.00;0.00;;;22.60;74.80;;;;;;4960037;28;20051;-74
2023/07/15 08:07:21;;;;;;;0.00;0.00;;;22.60;75.20;;;;;;4964935;28;20438;-75
2023/07/15 08:09:47;;;;;;;0.00;0.00;;;22.70;75.00;;;;;;4954663;28;20125;-74
2023/07/15 08:12:13;;;;;;;0.00;0.00;;;22.70;74.90;;;;;;4971692;28;20057;-74
2023/07/15 08:14:38;;;;;;;0.00;0.00;;;22.70;73.90;;;;;;4970221;28;20330;-75
2023/07/15 08:17:04;;;;;;;0.00;0.00;;;22.70;73.50;;;;;;4971148;28;20483;-74
2023/07/15 08:19:29;;;;;;;0.00;0.00;;;22.70;72.10;;;;;;4972607;28;20455;-74
2023/07/15 08:21:55;;;;;;;0.00;0.00;;;22.60;72.20;;;;;;4972097;28;20074;-74
2023/07/15 08:24:21;;;;;;;0.00;0.00;;;22.60;70.80;;;;;;4971759;28;20516;-71
2023/07/15 08:26:46;;;;;;;0.00;0.00;;;22.70;70.70;;;;;;4969844;28;20058;-71
2023/07/15 08:29:12;;;;;;;0.00;0.00;;;22.70;70.00;;;;;;4967936;28;20065;-72
2023/07/15 08:31:37;;;;;;;1.25;0.45;;;22.70;70.10;;;;;;4972408;28;20133;-72
2023/07/15 08:34:03;;;;;;;0.73;0.25;;;22.80;70.40;;;;;;4976157;28;20400;-71
2023/07/15 08:36:29;;;;;;;0.00;0.00;;;22.90;70.30;;;;;;4972329;28;20389;-72
2023/07/15 08:38:55;;;;;;;0.00;0.00;;;23.00;70.50;;;;;;4958205;28;20062;-72
2023/07/15 08:41:24;;;;;;;0.00;0.00;;;23.00;69.90;;;;;;4970720;28;20137;-71
2023/07/15 08:43:50;;;;;;;0.00;0.00;;;23.00;70.80;;;;;;4970980;28;20050;-79
2023/07/15 08:46:27;;;;;;;0.00;0.00;;;23.10;70.70;;;;;;4973007;28;20068;-75
2023/07/15 08:48:58;;;;;;;0.60;0.28;;;23.20;69.90;;;;;;4967699;28;20406;-71
2023/07/15 08:51:34;;;;;;;0.00;0.00;;;23.20;69.90;;;;;;4967805;28;20077;-69
2023/07/15 08:54:05;;;;;;;0.00;0.00;;;23.30;69.60;;;;;;4969828;28;20569;-69
2023/07/15 08:56:34;;;;;;;0.00;0.00;;;23.40;68.60;;;;;;4969420;28;20522;-69
2023/07/15 08:59:00;;;;;;;0.00;0.00;;;23.40;67.20;;;;;;4959512;28;20062;-72
2023/07/15 09:01:26;;;;;;;0.00;0.00;;;23.40;67.90;;;;;;4959837;28;20141;-71
2023/07/15 09:03:51;;;;;;;0.28;0.28;;;23.40;66.50;;;;;;4982149;28;20129;-70
2023/07/15 09:06:17;;;;;;;0.00;0.00;;;23.30;65.10;;;;;;4985478;28;20458;-70
2023/07/15 09:08:49;;;;;;;0.17;0.17;;;23.30;65.10;;;;;;4973636;28;20059;-71
2023/07/15 09:11:15;;;;;;;;;;;23.30;65.90;;;;;;4976582;28;20046;-69
2023/07/15 09:13:40;;;;;;;0.00;0.00;;;23.30;66.50;;;;;;4973024;28;20015;-69
2023/07/15 09:16:06;;;;;;;0.00;0.00;;;23.40;67.40;;;;;;4973234;28;20042;-72
2023/07/15 09:18:37;;;;;;;0.20;0.20;;;23.40;67.40;;;;;;4958009;28;20184;-71
2023/07/15 09:21:10;;;;;;;0.00;0.00;;;23.30;66.90;;;;;;4972366;28;20129;-70
2023/07/15 09:23:40;;;;;;;0.00;0.00;;;23.30;67.40;;;;;;4973704;28;20054;-70
2023/07/15 09:26:07;;;;;;;0.00;0.00;;;23.30;68.00;;;;;;4977674;28;20047;-70
2023/07/15 09:28:34;;;;;;;0.20;0.20;;;23.40;68.00;;;;;;4970697;28;20039;-70
2023/07/15 09:31:00;;;;;;;0.00;0.00;;;23.50;67.10;;;;;;4968830;28;20149;-72
2023/07/15 09:33:34;;;;;;;0.00;0.00;;;23.50;67.30;;;;;;4975831;28;20050;-69
2023/07/15 09:36:01;;;;;;;0.00;0.00;;;23.50;66.70;;;;;;4964525;28;20411;-69
2023/07/15 09:38:34;;;;;;;0.00;0.00;;;23.40;65.50;;;;;;4968583;28;20094;-70
2023/07/15 09:41:01;;;;;;;0.00;0.00;;;23.30;66.20;;;;;;4957113;28;20123;-66
2023/07/15 09:43:56;;;;;;;0.00;0.00;;;23.30;66.00;;;;;;4960629;28;20042;-66
2023/07/15 09:46:22;;;;;;;0.00;0.00;;;23.20;65.60;;;;;;4951092;28;20092;-69
2023/07/15 09:48:51;;;;;;;0.00;0.00;;;23.30;66.90;;;;;;4971267;28;20047;-70
2023/07/15 09:51:17;;;;;;;0.17;0.17;;;23.30;65.00;;;;;;4971304;28;20042;-73
2023/07/15 09:53:49;;;;;;;0.00;0.00;;;23.40;63.50;;;;;;4967430;28;20423;-67
2023/07/15 09:56:21;;;;;;;0.00;0.00;;;23.50;63.50;;;;;;4962859;28;20506;-66
2023/07/15 09:58:49;;;;;;;0.00;0.00;;;23.60;63.80;;;;;;4960145;28;20051;-67
2023/07/15 10:01:44;;;;;;;0.00;0.00;;;23.80;63.80;;;;;;4959264;28;20043;-73
2023/07/15 10:04:33;;;;;;;0.52;0.52;;;23.90;63.30;;;;;;4952524;28;20054;-68
2023/07/15 10:07:01;;;;;;;0.00;0.00;;;24.10;63.30;;;;;;4968995;28;20134;-68
2023/07/15 10:09:27;;;;;;;0.17;0.17;;;24.10;61.70;;;;;;4969802;28;20523;-72
2023/07/15 10:11:54;;;;;;;0.52;0.52;;;24.10;62.00;;;;;;4947359;28;20070;-69
2023/07/15 10:14:21;;;;;;;0.00;0.00;;;24.10;62.00;;;;;;4964371;28;20427;-70
2023/07/15 10:17:07;;;;;;;0.00;0.00;;;24.10;61.80;;;;;;4952710;28;20042;-73
2023/07/15 10:19:49;;;;;;;0.00;0.00;;;24.10;62.80;;;;;;4970063;28;20046;-72
2023/07/15 10:22:18;;;;;;;0.00;0.00;;;24.20;63.30;;;;;;4966071;28;20058;-71
2023/07/15 10:24:55;;;;;;;0.00;0.00;;;24.10;62.80;;;;;;4968216;28;20051;-71
2023/07/15 10:27:21;;;;;;;0.10;0.10;;;24.10;63.90;;;;;;4945674;28;20055;-70
2023/07/15 10:30:22;;;;;;;0.00;0.00;;;24.10;63.90;;;;;;4963043;28;20093;-70
2023/07/15 10:33:11;;;;;;;0.00;0.00;;;24.10;64.50;;;;;;4962135;28;20058;-70
2023/07/15 10:35:39;;;;;;;0.00;0.00;;;24.20;64.70;;;;;;4969363;28;20089;-70
2023/07/15 10:38:25;;;;;;;0.00;0.00;;;24.10;64.60;;;;;;4969575;28;20141;-70
2023/07/15 10:41:04;;;;;;;0.00;0.00;;;24.10;64.30;;;;;;4970173;28;20047;-71
2023/07/15 10:43:33;;;;;;;0.00;0.00;;;24.20;64.40;;;;;;4970608;28;20057;-71
2023/07/15 10:46:04;;;;;;;0.00;0.00;;;24.20;64.50;;;;;;4973926;28;20046;-70
2023/07/15 10:48:30;;;;;;;0.00;0.00;;;24.20;64.50;;;;;;4961700;28;20047;-71
2023/07/15 10:50:58;;;;;;;0.00;0.00;;;24.20;64.70;;;;;;4966264;28;20073;-70
2023/07/15 10:53:26;;;;;;;0.00;0.00;;;24.10;64.80;;;;;;4966820;28;20511;-70
2023/07/15 10:56:09;;;;;;;0.00;0.00;;;24.30;65.90;;;;;;4967003;28;20089;-70
2023/07/15 10:58:35;;;;;;;0.00;0.00;;;24.50;65.40;;;;;;4943240;28;20035;-71
2023/07/15 11:01:03;;;;;;;0.00;0.00;;;24.60;64.90;;;;;;4965115;28;20126;-69
2023/07/15 11:03:30;;;;;;;0.00;0.00;;;24.70;64.60;;;;;;4969588;28;20054;-71
2023/07/15 11:05:58;;;;;;;0.00;0.00;;;24.80;64.30;;;;;;4966568;28;20050;-70
2023/07/15 11:08:24;;;;;;;0.00;0.00;;;24.80;63.90;;;;;;4951844;28;20062;-70
2023/07/15 11:10:55;;;;;;;0.00;0.00;;;24.80;63.80;;;;;;4967844;28;20057;-71
2023/07/15 11:13:20;;;;;;;;;;;24.90;63.90;;;;;;4969635;28;20055;-71
2023/07/15 11:15:46;;;;;;;0.20;0.20;;;24.80;64.40;;;;;;4968809;28;19929;-71
2023/07/15 11:18:20;;;;;;;0.00;0.00;;;24.80;64.70;;;;;;4969541;28;20551;-71
2023/07/15 11:20:47;;;;;;;0.10;0.10;;;24.70;63.70;;;;;;4969080;28;20043;-71
2023/07/15 11:23:13;;;;;;;0.00;0.00;;;24.50;63.80;;;;;;4968789;28;20098;-71
2023/07/15 11:25:39;;;;;;;0.00;0.00;;;24.50;64.60;;;;;;4952703;28;20113;-71
2023/07/15 11:28:05;;;;;;;0.00;0.00;;;24.50;63.70;;;;;;4969416;28;20054;-70
2023/07/15 11:30:42;;;;;;;0.00;0.00;;;24.60;63.60;;;;;;4970008;28;20424;-71
2023/07/15 11:33:09;;;;;;;0.60;0.60;;;24.60;64.10;;;;;;4969093;28;20050;-71
2023/07/15 11:35:36;;;;;;;0.00;0.00;;;24.50;64.00;;;;;;4969292;28;20047;-71
2023/07/15 11:38:28;;;;;;;0.00;0.00;;;24.60;64.40;;;;;;4969404;28;20109;-71
2023/07/15 11:40:55;;;;;;;0.00;0.00;;;24.60;63.90;;;;;;4959819;28;20051;-71
2023/07/15 11:43:23;;;;;;;0.00;0.00;;;24.70;63.80;;;;;;4969583;28;20043;-71
2023/07/15 11:45:49;;;;;;;0.00;0.00;;;24.80;64.00;;;;;;4968009;28;20367;-71
2023/07/15 11:48:30;;;;;;;0.00;0.00;;;24.90;62.60;;;;;;4969306;28;20054;-71
2023/07/15 11:51:02;;;;;;;0.00;0.00;;;24.90;63.40;;;;;;4949474;28;20052;-71
2023/07/15 11:53:33;;;;;;;0.00;0.00;;;24.80;62.80;;;;;;4950738;29;20051;-71
2023/07/15 11:55:59;;;;;;;0.00;0.00;;;24.80;63.50;;;;;;4967081;28;20126;-71
2023/07/15 11:58:43;;;;;;;0.00;0.00;;;24.80;63.50;;;;;;4951892;28;20133;-71
2023/07/15 12:01:15;;;;;;;0.10;0.10;;;25.00;63.20;;;;;;4950456;28;20055;-71
2023/07/15 12:03:42;;;;;;;0.00;0.00;;;25.00;63.70;;;;;;4949751;29;20122;-71
2023/07/15 12:06:20;;;;;;;0.00;0.00;;;25.00;63.30;;;;;;4967110;28;20102;-71
2023/07/15 12:09:10;;;;;;;0.15;0.15;;;25.00;62.80;;;;;;4968515;28;20046;-71
2023/07/15 12:11:36;;;;;;;0.00;0.00;;;25.10;63.20;;;;;;4967325;28;20511;-71
2023/07/15 12:14:04;;;;;;;0.00;0.00;;;25.20;63.40;;;;;;4966569;28;20122;-71
2023/07/15 12:16:31;;;;;;;0.10;0.10;;;25.20;61.80;;;;;;4968886;28;20133;-71
2023/07/15 12:18:57;;;;;;;0.00;0.00;;;25.20;62.80;;;;;;4963700;28;20479;-71
2023/07/15 12:21:23;;;;;;;0.00;0.00;;;25.30;63.40;;;;;;4949921;29;20551;-72
2023/07/15 12:23:50;;;;;;;0.10;0.10;;;25.30;61.40;;;;;;4950154;29;20452;-68
2023/07/15 12:26:17;;;;;;;0.00;0.00;;;25.20;62.10;;;;;;4966431;28;20113;-71
2023/07/15 12:28:43;;;;;;;0.00;0.00;;;25.00;61.70;;;;;;4967969;28;20101;-71
2023/07/15 12:31:08;;;;;;;0.00;0.00;;;24.90;61.90;;;;;;4965126;28;20055;-71
2023/07/15 12:33:35;;;;;;;0.00;0.00;;;24.60;62.60;;;;;;4939313;28;20055;-71
2023/07/15 12:36:04;;;;;;;0.00;0.00;;;24.50;63.10;;;;;;4967361;28;20188;-71
2023/07/15 12:38:30;;;;;;;0.00;0.00;;;24.40;63.10;;;;;;4952374;28;20058;-71
2023/07/15 12:40:56;;;;;;;0.10;0.10;;;24.30;63.70;;;;;;4968522;28;20053;-71
2023/07/15 12:43:23;;;;;;;0.00;0.00;;;24.30;64.50;;;;;;4963321;28;20043;-71
2023/07/15 12:45:50;;;;;;;0.00;0.00;;;24.30;64.60;;;;;;4949960;28;20460;-71
2023/07/15 12:48:15;;;;;;;0.00;0.00;;;24.30;65.00;;;;;;4961317;28;20046;-71
2023/07/15 12:50:41;;;;;;;0.00;0.00;;;24.30;65.40;;;;;;4969137;28;20094;-71